createdAt,value
2018-06-15T00:00:26.292Z,18.20
2018-06-15T00:01:26.266Z,18.18
2018-06-15T00:02:26.236Z,18.07
2018-06-15T00:03:26.234Z,18.08
2018-06-15T00:04:26.184Z,18.19
2018-06-15T00:05:26.171Z,18.03
2018-06-15T00:06:26.134Z,18.01
2018-06-15T00:07:26.112Z,18.03
2018-06-15T00:08:26.095Z,18.00
2018-06-15T00:09:26.061Z,18.00
2018-06-15T00:10:26.043Z,17.90
2018-06-15T00:11:26.017Z,17.87
2018-06-15T00:12:25.989Z,17.89
2018-06-15T00:13:25.962Z,17.86
2018-06-15T00:14:25.939Z,17.98
2018-06-15T00:15:25.914Z,18.01
2018-06-15T00:16:25.888Z,17.95
2018-06-15T00:17:25.871Z,17.87
2018-06-15T00:18:25.840Z,17.90
2018-06-15T00:19:25.817Z,18.00
2018-06-15T00:20:25.802Z,17.95
2018-06-15T00:21:25.763Z,17.85
2018-06-15T00:22:25.746Z,17.90
2018-06-15T00:23:25.722Z,17.97
2018-06-15T00:24:25.692Z,17.98
2018-06-15T00:25:25.672Z,18.05
2018-06-15T00:26:25.639Z,18.11
2018-06-15T00:27:25.617Z,18.03
2018-06-15T00:28:25.605Z,18.07
2018-06-15T00:29:25.568Z,18.07
2018-06-15T00:30:25.538Z,18.10
2018-06-15T00:31:25.524Z,18.11
2018-06-15T00:32:25.498Z,18.05
2018-06-15T00:33:25.474Z,18.10
2018-06-15T00:34:25.442Z,18.04
2018-06-15T00:35:25.424Z,18.13
2018-06-15T00:36:25.392Z,18.08
2018-06-15T00:37:25.371Z,18.11
2018-06-15T00:38:25.346Z,18.15
2018-06-15T00:39:25.314Z,18.01
2018-06-15T00:40:25.302Z,18.05
2018-06-15T00:41:25.275Z,18.05
2018-06-15T00:42:25.262Z,18.05
2018-06-15T00:43:25.219Z,18.05
2018-06-15T00:44:25.196Z,17.98
2018-06-15T00:45:25.171Z,18.04
2018-06-15T00:46:25.147Z,18.08
2018-06-15T00:47:25.122Z,18.04
2018-06-15T00:48:25.099Z,18.08
2018-06-15T00:49:25.076Z,18.08
2018-06-15T00:50:25.063Z,18.05
2018-06-15T00:51:25.026Z,18.11
2018-06-15T00:52:25.000Z,18.07
2018-06-15T00:53:24.976Z,17.98
2018-06-15T00:54:24.948Z,17.87
2018-06-15T00:55:24.927Z,17.94
2018-06-15T00:56:24.896Z,17.95
2018-06-15T00:57:24.879Z,17.94
2018-06-15T00:58:24.849Z,18.05
2018-06-15T00:59:24.829Z,18.00
2018-06-15T01:00:24.799Z,18.04
2018-06-15T01:01:24.773Z,18.10
2018-06-15T01:02:24.751Z,18.11
2018-06-15T01:03:24.733Z,18.00
2018-06-15T01:04:24.700Z,18.01
2018-06-15T01:05:24.682Z,18.00
2018-06-15T01:06:24.650Z,17.97
2018-06-15T01:07:24.632Z,18.04
2018-06-15T01:08:24.598Z,17.98
2018-06-15T01:09:24.580Z,18.01
2018-06-15T01:10:24.546Z,18.00
2018-06-15T01:11:24.543Z,17.97
2018-06-15T01:12:24.505Z,18.01
2018-06-15T01:13:24.483Z,18.04
2018-06-15T01:14:24.460Z,18.00
2018-06-15T01:15:24.422Z,18.07
2018-06-15T01:16:24.420Z,18.05
2018-06-15T01:17:24.395Z,18.05
2018-06-15T01:18:24.350Z,18.01
2018-06-15T01:19:24.326Z,18.01
2018-06-15T01:20:24.305Z,18.00
2018-06-15T01:21:24.276Z,17.92
2018-06-15T01:22:24.254Z,17.98
2018-06-15T01:23:24.226Z,17.89
2018-06-15T01:24:24.207Z,17.85
2018-06-15T01:25:24.179Z,17.87
2018-06-15T01:26:24.159Z,17.89
2018-06-15T01:27:24.128Z,17.89
2018-06-15T01:28:24.101Z,17.90
2018-06-15T01:29:24.084Z,17.89
2018-06-15T01:30:24.054Z,17.89
2018-06-15T01:31:24.034Z,17.89
2018-06-15T01:32:24.001Z,17.92
2018-06-15T01:33:23.979Z,18.04
2018-06-15T01:34:23.959Z,18.08
2018-06-15T01:35:23.932Z,18.07
2018-06-15T01:36:23.913Z,18.18
2018-06-15T01:37:23.885Z,18.18
2018-06-15T01:38:23.856Z,18.13
2018-06-15T01:39:23.858Z,18.15
2018-06-15T01:40:23.802Z,18.18
2018-06-15T01:41:23.788Z,18.15
2018-06-15T01:42:23.759Z,18.20
2018-06-15T01:43:23.735Z,18.15
2018-06-15T01:44:23.712Z,18.07
2018-06-15T01:45:23.684Z,18.15
2018-06-15T01:46:23.657Z,18.01
2018-06-15T01:47:23.629Z,18.15
2018-06-15T01:48:23.623Z,18.19
2018-06-15T01:49:23.588Z,18.19
2018-06-15T01:50:23.557Z,18.19
2018-06-15T01:51:23.539Z,18.28
2018-06-15T01:52:23.504Z,18.18
2018-06-15T01:53:23.485Z,18.19
2018-06-15T01:54:23.472Z,18.10
2018-06-15T01:55:23.436Z,18.11
2018-06-15T01:56:23.415Z,18.16
2018-06-15T01:57:23.386Z,18.15
2018-06-15T01:58:23.360Z,18.04
2018-06-15T01:59:23.334Z,18.16
2018-06-15T02:00:23.313Z,18.15
2018-06-15T02:01:23.357Z,18.10
2018-06-15T02:02:23.258Z,18.18
2018-06-15T02:03:23.242Z,18.15
2018-06-15T02:04:23.210Z,18.20
2018-06-15T02:05:23.193Z,18.26
2018-06-15T02:06:23.165Z,18.29
2018-06-15T02:07:23.134Z,18.19
2018-06-15T02:08:23.118Z,18.31
2018-06-15T02:09:23.091Z,18.29
2018-06-15T02:10:23.065Z,18.29
2018-06-15T02:11:23.038Z,18.33
2018-06-15T02:12:23.012Z,18.15
2018-06-15T02:13:23.044Z,18.07
2018-06-15T02:14:22.992Z,18.04
2018-06-15T02:15:22.940Z,18.15
2018-06-15T02:16:22.926Z,18.13
2018-06-15T02:17:22.893Z,18.18
2018-06-15T02:18:22.870Z,18.18
2018-06-15T02:19:22.849Z,18.04
2018-06-15T02:20:22.816Z,18.05
2018-06-15T02:21:22.813Z,18.04
2018-06-15T02:22:22.765Z,18.08
2018-06-15T02:23:22.746Z,18.03
2018-06-15T02:24:22.720Z,18.10
2018-06-15T02:25:22.691Z,18.10
2018-06-15T02:26:22.672Z,18.07
2018-06-15T02:27:22.644Z,18.11
2018-06-15T02:28:22.615Z,18.10
2018-06-15T02:29:22.601Z,18.11
2018-06-15T02:30:22.568Z,18.05
2018-06-15T02:31:22.570Z,18.08
2018-06-15T02:32:22.523Z,18.05
2018-06-15T02:33:22.495Z,18.11
2018-06-15T02:34:22.472Z,18.13
2018-06-15T02:35:22.446Z,18.18
2018-06-15T02:36:22.427Z,18.13
2018-06-15T02:37:22.402Z,18.16
2018-06-15T02:38:22.367Z,18.25
2018-06-15T02:39:22.354Z,18.33
2018-06-15T02:40:22.323Z,18.25
2018-06-15T02:41:22.297Z,18.18
2018-06-15T02:42:22.277Z,18.13
2018-06-15T02:43:22.254Z,18.22
2018-06-15T02:44:22.226Z,18.25
2018-06-15T02:45:22.303Z,18.25
2018-06-15T02:46:22.171Z,18.38
2018-06-15T02:47:22.152Z,18.29
2018-06-15T02:48:22.131Z,18.34
2018-06-15T02:49:22.096Z,18.19
2018-06-15T02:50:22.072Z,18.23
2018-06-15T02:51:22.053Z,18.16
2018-06-15T02:52:22.024Z,18.18
2018-06-15T02:53:22.007Z,18.15
2018-06-15T02:54:21.981Z,18.16
2018-06-15T02:55:21.949Z,18.19
2018-06-15T02:56:21.932Z,18.22
2018-06-15T02:57:21.907Z,18.07
2018-06-15T02:58:21.898Z,18.05
2018-06-15T02:59:21.853Z,18.04
2018-06-15T03:00:21.833Z,18.11
2018-06-15T03:01:21.800Z,18.16
2018-06-15T03:02:21.790Z,18.07
2018-06-15T03:03:21.802Z,18.11
2018-06-15T03:04:21.733Z,17.98
2018-06-15T03:05:21.710Z,18.04
2018-06-15T03:06:21.679Z,18.01
2018-06-15T03:07:21.652Z,17.98
2018-06-15T03:08:21.634Z,18.10
2018-06-15T03:09:21.603Z,18.04
2018-06-15T03:10:21.583Z,18.07
2018-06-15T03:11:21.550Z,18.07
2018-06-15T03:12:21.535Z,18.16
2018-06-15T03:13:21.506Z,18.16
2018-06-15T03:14:21.479Z,18.18
2018-06-15T03:15:21.579Z,18.15
2018-06-15T03:16:21.432Z,18.28
2018-06-15T03:17:21.410Z,18.28
2018-06-15T03:18:21.377Z,18.13
2018-06-15T03:19:21.368Z,18.13
2018-06-15T03:20:21.337Z,18.08
2018-06-15T03:21:21.301Z,18.00
2018-06-15T03:22:21.294Z,17.94
2018-06-15T03:23:21.252Z,18.08
2018-06-15T03:24:21.235Z,18.00
2018-06-15T03:25:21.207Z,18.08
2018-06-15T03:26:21.179Z,18.07
2018-06-15T03:27:21.155Z,17.98
2018-06-15T03:28:21.135Z,18.05
2018-06-15T03:29:21.108Z,18.00
2018-06-15T03:30:21.096Z,18.04
2018-06-15T03:31:21.060Z,18.07
2018-06-15T03:32:21.032Z,18.08
2018-06-15T03:33:21.022Z,18.05
2018-06-15T03:34:20.986Z,18.03
2018-06-15T03:35:20.965Z,18.15
2018-06-15T03:36:20.938Z,18.15
2018-06-15T03:37:20.907Z,18.22
2018-06-15T03:38:20.881Z,18.07
2018-06-15T03:39:20.874Z,18.13
2018-06-15T03:40:20.836Z,18.13
2018-06-15T03:41:20.819Z,18.11
2018-06-15T03:42:20.780Z,18.19
2018-06-15T03:43:20.761Z,18.18
2018-06-15T03:44:20.734Z,18.18
2018-06-15T03:45:20.713Z,18.23
2018-06-15T03:46:20.688Z,18.22
2018-06-15T03:47:20.662Z,18.16
2018-06-15T03:48:20.639Z,18.10
2018-06-15T03:49:20.611Z,18.13
2018-06-15T03:50:20.585Z,18.15
2018-06-15T03:51:20.559Z,18.18
2018-06-15T03:52:20.537Z,18.16
2018-06-15T03:53:20.509Z,18.18
2018-06-15T03:54:20.495Z,18.22
2018-06-15T03:55:20.594Z,18.10
2018-06-15T03:56:20.536Z,18.16
2018-06-15T03:57:20.420Z,18.08
2018-06-15T03:58:20.398Z,18.33
2018-06-15T03:59:20.363Z,18.35
2018-06-15T04:00:20.343Z,18.43
2018-06-15T04:01:20.320Z,18.56
2018-06-15T04:02:20.288Z,18.45
2018-06-15T04:03:20.271Z,18.50
2018-06-15T04:04:20.244Z,18.49
2018-06-15T04:05:20.219Z,18.47
2018-06-15T04:06:20.193Z,18.53
2018-06-15T04:07:20.179Z,18.60
2018-06-15T04:08:20.148Z,18.56
2018-06-15T04:09:20.120Z,18.56
2018-06-15T04:10:20.099Z,18.56
2018-06-15T04:11:20.071Z,18.58
2018-06-15T04:12:20.042Z,18.62
2018-06-15T04:13:20.019Z,18.65
2018-06-15T04:14:20.000Z,18.62
2018-06-15T04:15:19.969Z,18.65
2018-06-15T04:16:19.947Z,18.63
2018-06-15T04:17:19.928Z,18.66
2018-06-15T04:18:19.905Z,18.78
2018-06-15T04:19:19.869Z,18.77
2018-06-15T04:20:19.848Z,18.84
2018-06-15T04:21:19.824Z,18.78
2018-06-15T04:22:19.804Z,18.81
2018-06-15T04:23:19.781Z,18.93
2018-06-15T04:24:19.746Z,18.83
2018-06-15T04:25:19.724Z,18.84
2018-06-15T04:26:19.699Z,18.88
2018-06-15T04:27:19.679Z,18.84
2018-06-15T04:28:19.656Z,18.86
2018-06-15T04:29:19.631Z,18.88
2018-06-15T04:30:19.598Z,18.96
2018-06-15T04:31:19.582Z,18.88
2018-06-15T04:32:19.556Z,18.95
2018-06-15T04:33:19.527Z,18.99
2018-06-15T04:34:19.507Z,18.89
2018-06-15T04:35:19.480Z,18.86
2018-06-15T04:36:19.458Z,18.89
2018-06-15T04:37:19.441Z,18.98
2018-06-15T04:38:19.408Z,18.93
2018-06-15T04:39:19.384Z,18.84
2018-06-15T04:40:19.355Z,18.92
2018-06-15T04:41:19.337Z,18.90
2018-06-15T04:42:19.306Z,18.93
2018-06-15T04:43:19.285Z,18.86
2018-06-15T04:44:19.264Z,18.96
2018-06-15T04:45:19.233Z,18.98
2018-06-15T04:46:19.215Z,19.04
2018-06-15T04:47:19.218Z,19.15
2018-06-15T04:48:19.158Z,19.18
2018-06-15T04:49:19.143Z,19.21
2018-06-15T04:50:19.131Z,19.14
2018-06-15T04:51:19.089Z,19.11
2018-06-15T04:52:19.062Z,19.00
2018-06-15T04:53:19.043Z,18.92
2018-06-15T04:54:19.017Z,18.96
2018-06-15T04:55:18.990Z,18.95
2018-06-15T04:56:19.017Z,19.07
2018-06-15T04:57:18.946Z,19.04
2018-06-15T04:58:18.917Z,19.15
2018-06-15T04:59:19.012Z,19.18
2018-06-15T05:00:18.873Z,19.26
2018-06-15T05:01:18.851Z,19.24
2018-06-15T05:02:18.817Z,19.29
2018-06-15T05:03:18.816Z,19.18
2018-06-15T05:04:18.779Z,19.22
2018-06-15T05:05:18.744Z,19.21
2018-06-15T05:06:18.733Z,19.12
2018-06-15T05:07:18.703Z,19.14
2018-06-15T05:08:18.677Z,19.12
2018-06-15T05:09:18.691Z,19.16
2018-06-15T05:10:18.620Z,19.14
2018-06-15T05:11:18.600Z,19.16
2018-06-15T05:12:18.607Z,19.15
2018-06-15T05:13:18.552Z,19.14
2018-06-15T05:14:18.528Z,19.26
2018-06-15T05:15:18.505Z,19.24
2018-06-15T05:16:18.478Z,19.21
2018-06-15T05:17:18.532Z,19.26
2018-06-15T05:18:18.455Z,19.22
2018-06-15T05:19:18.409Z,19.22
2018-06-15T05:20:18.391Z,19.24
2018-06-15T05:21:18.366Z,19.36
2018-06-15T05:22:18.330Z,19.18
2018-06-15T05:23:18.313Z,19.24
2018-06-15T05:24:18.290Z,19.24
2018-06-15T05:25:18.257Z,19.31
2018-06-15T05:26:18.242Z,19.34
2018-06-15T05:27:18.217Z,19.41
2018-06-15T05:28:18.191Z,19.36
2018-06-15T05:29:18.167Z,19.33
2018-06-15T05:30:18.166Z,19.33
2018-06-15T05:31:18.114Z,19.48
2018-06-15T05:32:18.093Z,19.41
2018-06-15T05:33:18.073Z,19.56
2018-06-15T05:34:18.037Z,19.48
2018-06-15T05:35:18.030Z,19.59
2018-06-15T05:36:18.010Z,19.73
2018-06-15T05:37:17.965Z,19.76
2018-06-15T05:38:17.951Z,19.88
2018-06-15T05:39:17.920Z,19.89
2018-06-15T05:40:17.899Z,20.02
2018-06-15T05:41:17.873Z,19.96
2018-06-15T05:42:17.852Z,20.06
2018-06-15T05:43:17.824Z,20.06
2018-06-15T05:44:17.800Z,20.19
2018-06-15T05:45:17.776Z,20.10
2018-06-15T05:46:17.753Z,20.13
2018-06-15T05:47:17.728Z,20.19
2018-06-15T05:48:17.708Z,20.21
2018-06-15T05:49:17.675Z,20.22
2018-06-15T05:50:17.660Z,20.06
2018-06-15T05:51:17.635Z,20.19
2018-06-15T05:52:17.605Z,20.16
2018-06-15T05:53:17.592Z,20.09
2018-06-15T05:54:17.555Z,20.02
2018-06-15T05:55:17.538Z,19.94
2018-06-15T05:56:17.518Z,19.99
2018-06-15T05:57:17.484Z,19.81
2018-06-15T05:58:17.477Z,19.77
2018-06-15T05:59:17.455Z,19.70
2018-06-15T06:00:17.412Z,19.62
2018-06-15T06:01:17.396Z,19.66
2018-06-15T06:02:17.366Z,19.82
2018-06-15T06:03:17.347Z,19.73
2018-06-15T06:04:17.343Z,19.88
2018-06-15T06:05:17.300Z,19.79
2018-06-15T06:06:17.267Z,19.77
2018-06-15T06:07:17.284Z,19.88
2018-06-15T06:08:17.230Z,19.92
2018-06-15T06:09:17.197Z,20.04
2018-06-15T06:10:17.182Z,20.00
2018-06-15T06:11:17.157Z,20.07
2018-06-15T06:12:17.125Z,20.13
2018-06-15T06:13:17.108Z,20.10
2018-06-15T06:14:17.076Z,20.10
2018-06-15T06:15:17.057Z,20.09
2018-06-15T06:16:17.030Z,20.09
2018-06-15T06:17:17.003Z,20.10
2018-06-15T06:18:16.984Z,20.10
2018-06-15T06:19:16.957Z,20.21
2018-06-15T06:20:16.941Z,20.32
2018-06-15T06:21:16.917Z,20.26
2018-06-15T06:22:16.887Z,20.28
2018-06-15T06:23:16.874Z,20.31
2018-06-15T06:24:16.838Z,20.29
2018-06-15T06:25:16.817Z,20.44
2018-06-15T06:26:16.794Z,20.44
2018-06-15T06:27:16.772Z,20.55
2018-06-15T06:28:16.749Z,20.52
2018-06-15T06:29:16.716Z,20.56
2018-06-15T06:30:16.700Z,20.56
2018-06-15T06:31:16.684Z,20.63
2018-06-15T06:32:16.657Z,20.58
2018-06-15T06:33:16.631Z,20.63
2018-06-15T06:34:16.603Z,20.63
2018-06-15T06:35:16.581Z,20.59
2018-06-15T06:36:16.552Z,20.67
2018-06-15T06:37:16.529Z,20.67
2018-06-15T06:38:16.508Z,20.69
2018-06-15T06:39:16.480Z,20.67
2018-06-15T06:40:16.466Z,20.80
2018-06-15T06:41:16.437Z,20.77
2018-06-15T06:42:16.408Z,20.90
2018-06-15T06:43:16.387Z,20.92
2018-06-15T06:44:16.375Z,20.90
2018-06-15T06:45:16.339Z,20.92
2018-06-15T06:46:16.317Z,20.81
2018-06-15T06:47:16.291Z,20.69
2018-06-15T06:48:16.270Z,20.65
2018-06-15T06:49:16.246Z,20.80
2018-06-15T06:50:16.230Z,20.92
2018-06-15T06:51:16.192Z,20.90
2018-06-15T06:52:16.179Z,21.00
2018-06-15T06:53:16.147Z,21.11
2018-06-15T06:54:16.135Z,21.07
2018-06-15T06:55:16.101Z,21.09
2018-06-15T06:56:16.081Z,21.12
2018-06-15T06:57:16.079Z,21.09
2018-06-15T06:58:16.026Z,21.15
2018-06-15T06:59:16.006Z,21.15
2018-06-15T07:00:15.994Z,21.14
2018-06-15T07:01:15.964Z,21.25
2018-06-15T07:02:15.977Z,21.30
2018-06-15T07:03:15.910Z,21.33
2018-06-15T07:04:15.884Z,21.27
2018-06-15T07:05:15.872Z,21.24
2018-06-15T07:06:15.897Z,21.24
2018-06-15T07:07:15.817Z,21.18
2018-06-15T07:08:15.797Z,21.22
2018-06-15T07:09:15.786Z,21.25
2018-06-15T07:10:15.745Z,21.24
2018-06-15T07:11:15.768Z,21.25
2018-06-15T07:12:15.737Z,21.30
2018-06-15T07:13:15.740Z,21.36
2018-06-15T07:14:15.664Z,21.45
2018-06-15T07:15:15.628Z,21.48
2018-06-15T07:16:15.622Z,21.43
2018-06-15T07:17:15.594Z,21.39
2018-06-15T07:18:15.560Z,21.48
2018-06-15T07:19:15.544Z,21.46
2018-06-15T07:20:15.511Z,21.50
2018-06-15T07:21:15.487Z,21.55
2018-06-15T07:22:15.462Z,21.61
2018-06-15T07:23:15.438Z,21.75
2018-06-15T07:24:15.425Z,21.77
2018-06-15T07:25:15.397Z,21.89
2018-06-15T07:26:15.372Z,21.98
2018-06-15T07:27:15.355Z,21.96
2018-06-15T07:28:15.332Z,22.00
2018-06-15T07:29:15.301Z,22.04
2018-06-15T07:30:15.308Z,22.02
2018-06-15T07:31:15.255Z,22.08
2018-06-15T07:32:15.230Z,22.02
2018-06-15T07:33:15.211Z,22.00
2018-06-15T07:34:15.189Z,22.06
2018-06-15T07:35:15.165Z,22.06
2018-06-15T07:36:15.135Z,21.93
2018-06-15T07:37:15.114Z,21.79
2018-06-15T07:38:15.093Z,21.69
2018-06-15T07:39:15.082Z,21.61
2018-06-15T07:40:15.046Z,21.51
2018-06-15T07:41:15.020Z,21.58
2018-06-15T07:42:14.997Z,21.58
2018-06-15T07:43:14.972Z,21.52
2018-06-15T07:44:14.956Z,21.43
2018-06-15T07:45:14.930Z,21.46
2018-06-15T07:46:14.903Z,21.48
2018-06-15T07:47:14.888Z,21.45
2018-06-15T07:48:14.859Z,21.48
2018-06-15T07:49:14.840Z,21.43
2018-06-15T07:50:14.807Z,21.40
2018-06-15T07:51:14.781Z,21.45
2018-06-15T07:52:14.761Z,21.35
2018-06-15T07:53:14.740Z,21.37
2018-06-15T07:54:14.714Z,21.37
2018-06-15T07:55:14.707Z,21.30
2018-06-15T07:56:14.671Z,21.29
2018-06-15T07:57:14.641Z,21.29
2018-06-15T07:58:14.627Z,21.27
2018-06-15T07:59:14.615Z,21.22
2018-06-15T08:00:14.577Z,21.29
2018-06-15T08:01:14.555Z,21.32
2018-06-15T08:02:14.522Z,21.29
2018-06-15T08:03:14.512Z,21.36
2018-06-15T08:04:14.483Z,21.36
2018-06-15T08:05:14.473Z,21.40
2018-06-15T08:06:14.437Z,21.48
2018-06-15T08:07:14.413Z,21.43
2018-06-15T08:08:14.386Z,21.43
2018-06-15T08:09:14.365Z,21.43
2018-06-15T08:10:14.385Z,21.46
2018-06-15T08:11:14.329Z,21.46
2018-06-15T08:12:14.285Z,21.48
2018-06-15T08:13:14.270Z,21.42
2018-06-15T08:14:14.244Z,21.50
2018-06-15T08:15:14.221Z,21.52
2018-06-15T08:16:14.200Z,21.64
2018-06-15T08:17:14.170Z,21.67
2018-06-15T08:18:14.153Z,21.66
2018-06-15T08:19:14.133Z,21.79
2018-06-15T08:20:14.099Z,21.79
2018-06-15T08:21:14.080Z,21.82
2018-06-15T08:22:14.049Z,21.93
2018-06-15T08:23:14.029Z,21.98
2018-06-15T08:24:14.013Z,22.02
2018-06-15T08:25:13.991Z,21.93
2018-06-15T08:26:13.962Z,21.93
2018-06-15T08:27:13.935Z,22.00
2018-06-15T08:28:13.921Z,22.07
2018-06-15T08:29:13.893Z,21.95
2018-06-15T08:30:13.869Z,22.00
2018-06-15T08:31:13.851Z,21.96
2018-06-15T08:32:13.818Z,21.99
2018-06-15T08:33:13.797Z,22.07
2018-06-15T08:34:13.777Z,22.08
2018-06-15T08:35:13.748Z,22.14
2018-06-15T08:36:13.733Z,22.17
2018-06-15T08:37:13.708Z,22.25
2018-06-15T08:38:13.691Z,22.26
2018-06-15T08:39:13.664Z,22.25
2018-06-15T08:40:13.878Z,22.22
2018-06-15T08:41:13.616Z,22.25
2018-06-15T08:42:13.596Z,22.30
2018-06-15T08:43:13.577Z,22.32
2018-06-15T08:44:13.542Z,22.30
2018-06-15T08:45:13.520Z,22.29
2018-06-15T08:46:13.502Z,22.29
2018-06-15T08:47:13.469Z,22.30
2018-06-15T08:48:13.453Z,22.38
2018-06-15T08:49:13.429Z,22.38
2018-06-15T08:50:13.404Z,22.25
2018-06-15T08:51:13.385Z,22.26
2018-06-15T08:52:13.353Z,22.20
2018-06-15T08:53:13.333Z,22.18
2018-06-15T08:54:13.308Z,22.06
2018-06-15T08:55:13.284Z,22.07
2018-06-15T08:56:13.264Z,21.92
2018-06-15T08:57:13.242Z,21.92
2018-06-15T08:58:13.218Z,21.88
2018-06-15T08:59:13.189Z,21.83
2018-06-15T09:00:13.177Z,21.93
2018-06-15T09:01:13.160Z,21.82
2018-06-15T09:02:13.126Z,21.76
2018-06-15T09:03:13.107Z,21.85
2018-06-15T09:04:13.077Z,21.77
2018-06-15T09:05:13.054Z,21.88
2018-06-15T09:06:13.033Z,21.88
2018-06-15T09:07:13.013Z,21.73
2018-06-15T09:08:12.985Z,21.79
2018-06-15T09:09:12.958Z,21.69
2018-06-15T09:10:12.953Z,21.61
2018-06-15T09:11:12.918Z,21.58
2018-06-15T09:12:12.889Z,21.52
2018-06-15T09:13:12.868Z,21.50
2018-06-15T09:14:12.842Z,21.51
2018-06-15T09:15:12.820Z,21.50
2018-06-15T09:16:12.842Z,21.45
2018-06-15T09:17:12.773Z,21.51
2018-06-15T09:18:12.824Z,21.51
2018-06-15T09:19:12.891Z,21.50
2018-06-15T09:20:12.701Z,21.46
2018-06-15T09:21:12.686Z,21.46
2018-06-15T09:22:12.654Z,21.45
2018-06-15T09:23:12.701Z,21.45
2018-06-15T09:24:12.605Z,21.46
2018-06-15T09:25:12.591Z,21.43
2018-06-15T09:26:12.559Z,21.40
2018-06-15T09:27:12.536Z,21.50
2018-06-15T09:28:12.514Z,21.52
2018-06-15T09:29:12.493Z,21.42
2018-06-15T09:30:12.466Z,21.50
2018-06-15T09:31:12.449Z,21.46
2018-06-15T09:32:12.420Z,21.51
2018-06-15T09:33:12.441Z,21.51
2018-06-15T09:34:12.377Z,21.52
2018-06-15T09:35:12.354Z,21.61
2018-06-15T09:36:12.333Z,21.62
2018-06-15T09:37:12.304Z,21.70
2018-06-15T09:38:12.280Z,21.64
2018-06-15T09:39:12.252Z,21.75
2018-06-15T09:40:12.236Z,21.77
2018-06-15T09:41:12.234Z,21.77
2018-06-15T09:42:12.266Z,21.76
2018-06-15T09:43:12.165Z,21.73
2018-06-15T09:44:12.139Z,21.95
2018-06-15T09:45:12.116Z,22.04
2018-06-15T09:46:12.098Z,22.00
2018-06-15T09:47:12.149Z,22.00
2018-06-15T09:48:12.053Z,22.13
2018-06-15T09:49:12.075Z,22.23
2018-06-15T09:50:12.011Z,22.23
2018-06-15T09:51:11.973Z,22.32
2018-06-15T09:52:11.951Z,22.38
2018-06-15T09:53:11.921Z,22.48
2018-06-15T09:54:11.957Z,22.38
2018-06-15T09:55:11.885Z,22.50
2018-06-15T09:56:11.852Z,22.50
2018-06-15T09:57:11.878Z,22.54
2018-06-15T09:58:11.840Z,22.51
2018-06-15T09:59:11.853Z,22.47
2018-06-15T10:00:11.759Z,22.60
2018-06-15T10:01:11.748Z,22.66
2018-06-15T10:02:11.721Z,22.84
2018-06-15T10:03:11.746Z,22.83
2018-06-15T10:04:11.751Z,22.90
2018-06-15T10:05:11.641Z,22.84
2018-06-15T10:06:11.707Z,22.84
2018-06-15T10:07:11.601Z,22.90
2018-06-15T10:08:11.571Z,22.87
2018-06-15T10:09:11.589Z,22.96
2018-06-15T10:10:11.583Z,22.99
2018-06-15T10:11:11.565Z,23.08
2018-06-15T10:12:11.497Z,23.12
2018-06-15T10:13:11.631Z,23.15
2018-06-15T10:14:11.441Z,23.15
2018-06-15T10:15:11.417Z,23.05
2018-06-15T10:16:11.385Z,23.03
2018-06-15T10:17:11.364Z,23.03
2018-06-15T10:18:11.337Z,23.06
2018-06-15T10:19:11.366Z,23.06
2018-06-15T10:20:11.297Z,22.99
2018-06-15T10:21:11.312Z,23.00
2018-06-15T10:22:11.346Z,23.18
2018-06-15T10:23:11.228Z,23.03
2018-06-15T10:24:11.209Z,23.09
2018-06-15T10:25:11.270Z,23.05
2018-06-15T10:26:11.163Z,23.15
2018-06-15T10:27:11.167Z,23.09
2018-06-15T10:28:11.117Z,23.17
2018-06-15T10:29:11.088Z,23.21
2018-06-15T10:30:11.068Z,23.20
2018-06-15T10:31:11.043Z,23.28
2018-06-15T10:32:11.022Z,23.40
2018-06-15T10:33:11.054Z,23.43
2018-06-15T10:34:10.975Z,23.58
2018-06-15T10:35:10.947Z,23.62
2018-06-15T10:36:10.957Z,23.73
2018-06-15T10:37:10.906Z,23.78
2018-06-15T10:38:10.934Z,23.98
2018-06-15T10:39:10.967Z,23.99
2018-06-15T10:40:10.885Z,24.05
2018-06-15T10:41:10.873Z,24.10
2018-06-15T10:42:10.820Z,24.24
2018-06-15T10:43:10.833Z,24.24
2018-06-15T10:44:10.748Z,24.35
2018-06-15T10:45:10.808Z,24.20
2018-06-15T10:46:10.723Z,24.26
2018-06-15T10:47:10.683Z,24.21
2018-06-15T10:48:10.694Z,24.18
2018-06-15T10:49:10.630Z,24.23
2018-06-15T10:50:10.630Z,24.06
2018-06-15T10:51:10.649Z,23.98
2018-06-15T10:52:10.588Z,23.91
2018-06-15T10:53:10.551Z,23.84
2018-06-15T10:54:10.582Z,23.76
2018-06-15T10:55:10.525Z,23.66
2018-06-15T10:56:10.522Z,23.65
2018-06-15T10:57:10.453Z,23.55
2018-06-15T10:58:10.471Z,23.61
2018-06-15T10:59:10.430Z,23.63
2018-06-15T11:00:10.390Z,23.47
2018-06-15T11:01:10.363Z,23.62
2018-06-15T11:02:10.341Z,23.56
2018-06-15T11:03:10.319Z,23.54
2018-06-15T11:04:10.302Z,23.50
2018-06-15T11:05:10.348Z,23.47
2018-06-15T11:06:10.253Z,23.46
2018-06-15T11:07:10.277Z,23.41
2018-06-15T11:08:10.194Z,23.40
2018-06-15T11:09:10.186Z,23.46
2018-06-15T11:10:10.156Z,23.44
2018-06-15T11:11:10.129Z,23.50
2018-06-15T11:12:10.109Z,23.46
2018-06-15T11:13:10.089Z,23.32
2018-06-15T11:14:10.058Z,23.39
2018-06-15T11:15:10.041Z,23.39
2018-06-15T11:16:10.013Z,23.37
2018-06-15T11:17:09.992Z,23.50
2018-06-15T11:18:09.976Z,23.61
2018-06-15T11:19:09.945Z,23.61
2018-06-15T11:20:09.921Z,23.68
2018-06-15T11:21:09.900Z,23.66
2018-06-15T11:22:09.877Z,23.68
2018-06-15T11:23:09.854Z,23.71
2018-06-15T11:24:09.833Z,23.81
2018-06-15T11:25:09.810Z,23.80
2018-06-15T11:26:09.791Z,23.77
2018-06-15T11:27:09.762Z,23.78
2018-06-15T11:28:09.738Z,23.86
2018-06-15T11:29:09.720Z,23.84
2018-06-15T11:30:09.699Z,23.93
2018-06-15T11:31:09.701Z,23.98
2018-06-15T11:32:09.657Z,23.93
2018-06-15T11:33:09.627Z,23.93
2018-06-15T11:34:09.603Z,24.01
2018-06-15T11:35:09.584Z,24.10
2018-06-15T11:36:09.558Z,24.06
2018-06-15T11:37:09.535Z,24.08
2018-06-15T11:38:09.510Z,24.08
2018-06-15T11:39:09.486Z,24.18
2018-06-15T11:40:09.475Z,24.29
2018-06-15T11:41:09.536Z,24.33
2018-06-15T11:42:09.424Z,24.48
2018-06-15T11:43:09.408Z,24.40
2018-06-15T11:44:09.370Z,24.42
2018-06-15T11:45:09.358Z,24.50
2018-06-15T11:46:09.327Z,24.58
2018-06-15T11:47:09.310Z,24.73
2018-06-15T11:48:09.289Z,24.66
2018-06-15T11:49:09.265Z,24.65
2018-06-15T11:50:09.237Z,24.77
2018-06-15T11:51:09.223Z,24.89
2018-06-15T11:52:09.191Z,24.92
2018-06-15T11:53:09.176Z,25.16
2018-06-15T11:54:09.152Z,25.07
2018-06-15T11:55:09.156Z,25.33
2018-06-15T11:56:09.105Z,25.29
2018-06-15T11:57:09.080Z,25.32
2018-06-15T11:58:09.061Z,25.41
2018-06-15T11:59:09.053Z,25.46
2018-06-15T12:00:09.024Z,25.46
2018-06-15T12:01:08.993Z,25.44
2018-06-15T12:02:08.973Z,25.53
2018-06-15T12:03:08.945Z,25.54
2018-06-15T12:04:08.929Z,25.48
2018-06-15T12:05:08.905Z,25.33
2018-06-15T12:06:08.886Z,25.41
2018-06-15T12:07:08.863Z,25.36
2018-06-15T12:08:08.840Z,25.40
2018-06-15T12:09:08.892Z,25.48
2018-06-15T12:10:08.797Z,25.54
2018-06-15T12:11:08.772Z,25.63
2018-06-15T12:12:08.753Z,25.72
2018-06-15T12:13:08.726Z,25.65
2018-06-15T12:14:08.707Z,25.58
2018-06-15T12:15:08.685Z,25.55
2018-06-15T12:16:08.656Z,25.63
2018-06-15T12:17:08.644Z,25.54
2018-06-15T12:18:08.611Z,25.55
2018-06-15T12:19:08.599Z,25.54
2018-06-15T12:20:08.579Z,25.58
2018-06-15T12:21:08.546Z,25.62
2018-06-15T12:22:08.533Z,25.59
2018-06-15T12:23:08.532Z,25.65
2018-06-15T12:24:08.479Z,25.62
2018-06-15T12:25:08.461Z,25.60
2018-06-15T12:26:08.437Z,25.69
2018-06-15T12:27:08.429Z,25.81
2018-06-15T12:28:08.393Z,25.63
2018-06-15T12:29:08.380Z,25.66
2018-06-15T12:30:08.350Z,25.77
2018-06-15T12:31:08.323Z,25.70
2018-06-15T12:32:08.320Z,25.66
2018-06-15T12:33:08.285Z,25.55
2018-06-15T12:34:08.285Z,25.54
2018-06-15T12:35:08.250Z,25.60
2018-06-15T12:36:08.218Z,25.65
2018-06-15T12:37:08.194Z,25.62
2018-06-15T12:38:08.173Z,25.75
2018-06-15T12:39:08.153Z,25.77
2018-06-15T12:40:08.127Z,25.88
2018-06-15T12:41:08.113Z,25.81
2018-06-15T12:42:08.082Z,25.88
2018-06-15T12:43:08.068Z,25.91
2018-06-15T12:44:08.045Z,26.00
2018-06-15T12:45:08.037Z,26.00
2018-06-15T12:46:08.022Z,26.03
2018-06-15T12:47:07.979Z,26.02
2018-06-15T12:48:07.955Z,26.00
2018-06-15T12:49:07.929Z,26.00
2018-06-15T12:50:07.919Z,26.09
2018-06-15T12:51:07.898Z,26.10
2018-06-15T12:52:07.865Z,26.09